createdAt,value
2022-09-10T00:01:59.746Z,14.90
2022-09-10T00:12:51.456Z,14.70
2022-09-10T00:24:00.357Z,14.70
2022-09-10T00:29:13.493Z,14.60
2022-09-10T00:40:04.404Z,14.40
2022-09-10T00:45:24.169Z,14.30
2022-09-10T00:50:48.158Z,14.20
2022-09-10T00:56:02.118Z,14.10
2022-09-10T01:01:23.378Z,14.10
2022-09-10T01:06:41.016Z,14.00
2022-09-10T01:12:38.360Z,14.00
2022-09-10T01:19:00.044Z,13.90
2022-09-10T01:30:57.651Z,13.90
2022-09-10T01:37:12.859Z,13.90
2022-09-10T01:48:33.618Z,14.00
2022-09-10T01:54:29.055Z,13.90
2022-09-10T02:00:14.878Z,13.90
2022-09-10T02:11:32.346Z,13.90
2022-09-10T02:16:58.732Z,13.90
2022-09-10T02:22:11.126Z,13.90
2022-09-10T02:27:30.339Z,13.90
2022-09-10T02:32:55.545Z,13.90
2022-09-10T02:38:03.169Z,13.80
2022-09-10T02:55:07.912Z,13.70
2022-09-10T03:00:49.473Z,13.70
2022-09-10T03:05:58.161Z,13.70
2022-09-10T03:11:51.351Z,13.60
2022-09-10T03:33:39.074Z,13.50
2022-09-10T03:39:23.045Z,13.40
2022-09-10T03:44:39.363Z,13.40
2022-09-10T03:49:52.329Z,13.40
2022-09-10T03:55:13.941Z,13.30
2022-09-10T04:00:51.166Z,13.30
2022-09-10T04:05:53.841Z,13.20
2022-09-10T04:11:06.536Z,13.10
2022-09-10T04:16:37.954Z,13.10
2022-09-10T04:22:25.087Z,13.10
2022-09-10T04:27:31.898Z,13.00
2022-09-10T04:32:41.342Z,12.90
2022-09-10T04:38:46.848Z,12.90
2022-09-10T04:44:03.738Z,12.80
2022-09-10T04:49:38.387Z,12.80
2022-09-10T04:54:46.614Z,12.60
2022-09-10T04:59:58.323Z,12.70
2022-09-10T05:05:02.057Z,12.70
2022-09-10T05:10:36.891Z,12.60
2022-09-10T05:15:51.444Z,12.70
2022-09-10T05:20:56.369Z,12.70
2022-09-10T05:26:01.650Z,12.80
2022-09-10T05:31:24.187Z,12.70
2022-09-10T05:36:32.596Z,12.70
2022-09-10T05:41:38.956Z,12.70
2022-09-10T05:46:49.324Z,12.80
2022-09-10T05:51:55.489Z,12.70
2022-09-10T05:56:59.243Z,12.80
2022-09-10T06:02:11.476Z,12.80
2022-09-10T06:07:16.511Z,12.80
2022-09-10T06:12:38.584Z,12.90
2022-09-10T06:18:00.172Z,13.00
2022-09-10T06:23:05.570Z,13.10
2022-09-10T06:28:15.685Z,13.20
2022-09-10T06:33:29.829Z,13.30
2022-09-10T06:38:39.309Z,13.50
2022-09-10T06:43:54.217Z,13.70
2022-09-10T06:49:21.726Z,13.80
2022-09-10T06:54:48.321Z,14.00
2022-09-10T07:00:24.261Z,14.20
2022-09-10T07:06:00.085Z,14.30
2022-09-10T07:11:15.019Z,14.50
2022-09-10T07:16:29.567Z,14.80
2022-09-10T07:21:32.780Z,15.00
2022-09-10T07:26:38.776Z,14.90
2022-09-10T07:31:49.501Z,14.90
2022-09-10T07:37:29.636Z,14.90
2022-09-10T07:42:47.906Z,15.30
2022-09-10T07:48:08.920Z,15.80
2022-09-10T07:53:54.768Z,16.10
2022-09-10T07:59:24.657Z,16.20
2022-09-10T08:04:47.147Z,16.30
2022-09-10T08:10:36.347Z,16.50
2022-09-10T08:22:14.759Z,17.20
2022-09-10T08:27:37.600Z,17.40
2022-09-10T08:33:19.207Z,17.70
2022-09-10T08:39:51.241Z,18.00
2022-09-10T08:45:50.599Z,18.00
2022-09-10T08:51:39.113Z,18.00
2022-09-10T08:57:00.835Z,18.00
2022-09-10T09:02:55.733Z,18.00
2022-09-10T09:08:13.045Z,18.00
2022-09-10T09:19:34.973Z,18.50
2022-09-10T09:25:29.020Z,18.60
2022-09-10T09:31:44.381Z,18.50
2022-09-10T09:43:20.256Z,19.30
2022-09-10T09:48:29.595Z,19.60
2022-09-10T09:53:33.219Z,19.80
2022-09-10T09:59:15.188Z,20.20
2022-09-10T10:05:01.991Z,20.50
2022-09-10T10:10:26.528Z,20.30
2022-09-10T10:16:18.200Z,20.00
2022-09-10T10:28:51.291Z,19.50
2022-09-10T10:34:50.242Z,19.60
2022-09-10T10:40:45.575Z,19.90
2022-09-10T10:52:53.021Z,20.40
2022-09-10T11:04:33.085Z,20.60
2022-09-10T11:10:35.654Z,21.00
2022-09-10T11:16:16.072Z,22.20
2022-09-10T11:21:38.647Z,22.10
2022-09-10T11:27:27.651Z,21.40
2022-09-10T11:32:55.351Z,21.00
2022-09-10T11:44:46.844Z,21.70
2022-09-10T11:50:19.557Z,21.40
2022-09-10T11:55:45.122Z,21.70
2022-09-10T12:01:21.692Z,21.80
2022-09-10T12:06:55.342Z,21.40
2022-09-10T12:12:28.257Z,22.10
2022-09-10T12:17:34.365Z,22.90
2022-09-10T12:22:54.812Z,22.80
2022-09-10T12:28:14.096Z,23.00
2022-09-10T12:33:44.110Z,23.40
2022-09-10T12:44:42.678Z,24.00
2022-09-10T12:50:16.877Z,24.00
2022-09-10T12:55:38.747Z,24.00
2022-09-10T13:01:49.560Z,23.70
2022-09-10T13:07:34.785Z,23.20
2022-09-10T13:12:46.621Z,23.40
2022-09-10T13:17:55.884Z,22.80
2022-09-10T13:23:09.310Z,23.00
2022-09-10T13:28:47.467Z,23.40
2022-09-10T13:34:21.094Z,23.30
2022-09-10T13:40:35.378Z,23.60
2022-09-10T13:45:57.032Z,23.40
2022-09-10T13:51:29.963Z,23.00
2022-09-10T13:57:37.210Z,23.10
2022-09-10T14:03:30.001Z,22.80
2022-09-10T14:08:59.804Z,22.50
2022-09-10T14:20:36.610Z,22.00
2022-09-10T14:32:49.890Z,21.90
2022-09-10T14:37:57.505Z,21.70
2022-09-10T14:43:35.867Z,21.80
2022-09-10T14:54:57.550Z,20.90
2022-09-10T15:00:23.654Z,20.70
2022-09-10T15:05:53.854Z,20.80
2022-09-10T15:11:08.829Z,21.10
2022-09-10T15:16:12.630Z,21.30
2022-09-10T15:21:23.551Z,21.40
2022-09-10T15:26:29.789Z,21.40
2022-09-10T15:32:10.929Z,21.30
2022-09-10T15:37:15.781Z,21.20
2022-09-10T15:42:43.449Z,21.10
2022-09-10T15:48:13.991Z,20.90
2022-09-10T15:53:22.339Z,20.80
2022-09-10T15:58:35.858Z,20.70
2022-09-10T16:03:54.599Z,20.50
2022-09-10T16:09:07.786Z,20.40
2022-09-10T16:14:17.432Z,20.10
2022-09-10T16:19:45.461Z,19.90
2022-09-10T16:25:19.593Z,19.70
2022-09-10T16:30:36.786Z,19.60
2022-09-10T16:35:51.738Z,19.40
2022-09-10T16:41:30.996Z,19.20
2022-09-10T16:52:21.408Z,18.90
2022-09-10T16:58:13.395Z,18.80
2022-09-10T17:03:19.599Z,18.80
2022-09-10T17:08:35.040Z,18.70
2022-09-10T17:13:49.381Z,18.70
2022-09-10T17:19:01.102Z,18.60
2022-09-10T17:24:09.749Z,18.60
2022-09-10T17:29:17.030Z,18.80
2022-09-10T17:39:47.989Z,18.80
2022-09-10T17:44:53.469Z,18.80
2022-09-10T17:50:08.730Z,18.60
2022-09-10T17:55:18.109Z,18.50
2022-09-10T18:00:23.443Z,18.40
2022-09-10T18:05:33.581Z,18.30
2022-09-10T18:10:44.661Z,18.20
2022-09-10T18:15:53.736Z,18.10
2022-09-10T18:21:11.521Z,18.00
2022-09-10T18:26:16.075Z,17.90
2022-09-10T18:31:22.592Z,17.80
2022-09-10T18:36:41.763Z,17.70
2022-09-10T18:41:54.899Z,17.60
2022-09-10T18:47:17.758Z,17.60
2022-09-10T18:52:30.761Z,17.50
2022-09-10T18:57:36.663Z,17.50
2022-09-10T19:02:52.944Z,17.40
2022-09-10T19:08:06.098Z,17.30
2022-09-10T19:13:16.340Z,17.30
2022-09-10T19:18:24.365Z,17.30
2022-09-10T19:23:32.788Z,17.20
2022-09-10T19:28:46.888Z,17.10
2022-09-10T19:33:57.527Z,17.10
2022-09-10T19:44:23.136Z,17.10
2022-09-10T19:49:27.215Z,17.00
2022-09-10T19:54:34.663Z,17.00
2022-09-10T19:59:38.212Z,16.90
2022-09-10T20:09:57.653Z,16.70
2022-09-10T20:15:04.486Z,16.70
2022-09-10T20:20:19.576Z,16.70
2022-09-10T20:25:31.081Z,16.70
2022-09-10T20:30:37.108Z,16.80
2022-09-10T20:35:47.589Z,16.80
2022-09-10T20:40:55.370Z,16.80
2022-09-10T20:46:00.439Z,16.80
2022-09-10T20:51:11.800Z,16.80
2022-09-10T20:56:21.637Z,16.80
2022-09-10T21:01:32.759Z,16.80
2022-09-10T21:06:39.083Z,16.70
2022-09-10T21:11:52.418Z,16.70
2022-09-10T21:17:17.860Z,16.70
2022-09-10T21:22:38.852Z,16.60
2022-09-10T21:27:55.086Z,16.50
2022-09-10T21:33:20.386Z,16.50
2022-09-10T21:38:50.709Z,16.50
2022-09-10T21:44:00.320Z,16.50
2022-09-10T21:49:07.245Z,16.40
2022-09-10T21:54:24.967Z,16.40
2022-09-10T21:59:30.127Z,16.30
2022-09-10T22:04:33.489Z,16.30
2022-09-10T22:09:41.569Z,16.30
2022-09-10T22:15:00.533Z,16.30
2022-09-10T22:20:28.355Z,16.20
2022-09-10T22:25:40.915Z,16.20
2022-09-10T22:30:46.307Z,16.10
2022-09-10T22:35:52.614Z,16.00
2022-09-10T22:40:58.001Z,15.90
2022-09-10T22:46:11.044Z,15.80
2022-09-10T22:51:32.226Z,15.80
2022-09-10T22:56:45.625Z,15.80
2022-09-10T23:01:53.970Z,15.80
2022-09-10T23:07:11.620Z,15.70
2022-09-10T23:12:33.167Z,15.70
2022-09-10T23:17:52.563Z,15.70
2022-09-10T23:23:00.912Z,15.60
2022-09-10T23:28:07.121Z,15.60
2022-09-10T23:33:33.929Z,15.60
2022-09-10T23:39:04.929Z,15.60
2022-09-10T23:44:15.541Z,15.50
2022-09-10T23:49:24.972Z,15.50
2022-09-10T23:54:30.149Z,15.50
2022-09-10T23:59:41.557Z,15.60
